Time;durP1;ratioP1;P1;durP2;ratioP2;P2;SDS_P1;SDS_P2;PMS_P1;PMS_P2;Temp;Humidity;BMP_temperature;BMP_pressure;BME280_temperature;BME280_humidity;BME280_pressure;Samples;Min_cycle;Max_cycle;Signal;HPM_P1;HPM_P2
2022/03/26 00:02:10;;;;;;;21.40;10.23;;;;;;;;;;5052893;28;20027;-76
2022/03/26 00:04:36;;;;;;;20.25;11.45;;;;;;;;;;5048027;28;20049;-76
2022/03/26 00:07:02;;;;;;;20.20;11.48;;;;;;;;;;5052868;28;20818;-76
2022/03/26 00:09:29;;;;;;;18.75;11.23;;;;;;;;;;5041146;28;20037;-76
2022/03/26 00:11:55;;;;;;;20.80;11.40;;;;;;;;;;5051637;28;20039;-75
2022/03/26 00:14:20;;;;;;;19.17;10.60;;;;;;;;;;5042811;28;20041;-76
2022/03/26 00:16:46;;;;;;;15.38;9.63;;;;;;;;;;5032484;28;20467;-76
2022/03/26 00:19:14;;;;;;;22.10;10.35;;;;;;;;;;5032309;28;20050;-76
2022/03/26 00:21:41;;;;;;;22.52;10.82;;;;;;;;;;5032560;28;20350;-76
2022/03/26 00:24:07;;;;;;;16.88;9.55;;;;;;;;;;5038979;28;20040;-76
2022/03/26 00:26:33;;;;;;;15.85;9.25;;;;;;;;;;5052109;28;20039;-76
2022/03/26 00:29:00;;;;;;;18.70;10.00;;;;;;;;;;5045508;28;20069;-76
2022/03/26 00:31:26;;;;;;;22.88;10.32;;;;;;;;;;5057057;28;20419;-76
2022/03/26 00:33:54;;;;;;;18.20;9.27;;;;;;;;;;5031445;28;20072;-76
2022/03/26 00:36:20;;;;;;;15.13;9.40;;;;;;;;;;5031610;28;20071;-76
2022/03/26 00:38:46;;;;;;;16.52;10.18;;;;;;;;;;5032535;28;20041;-76
2022/03/26 00:41:12;;;;;;;15.07;8.52;;;;;;;;;;5047481;28;20107;-76
2022/03/26 00:43:38;;;;;;;15.35;9.05;;;;;;;;;;5044730;28;20059;-76
2022/03/26 00:46:04;;;;;;;13.98;8.45;;;;;;;;;;5049360;28;20471;-75
2022/03/26 00:48:30;;;;;;;14.05;8.25;;;;;;;;;;5052082;28;20039;-76
2022/03/26 00:50:56;;;;;;;16.67;9.13;;;;;;;;;;5047675;28;20470;-76
2022/03/26 00:53:22;;;;;;;16.73;9.85;;;;;;;;;;5044301;28;20067;-76
2022/03/26 00:55:48;;;;;;;16.65;9.77;;;;;;;;;;5051432;28;20065;-76
2022/03/26 00:58:14;;;;;;;15.10;9.07;;;;;;;;;;5051062;28;20029;-76
2022/03/26 01:00:42;;;;;;;14.00;9.52;;;;;;;;;;5051042;28;20036;-76
2022/03/26 01:03:09;;;;;;;20.95;10.70;;;;;;;;;;5050813;28;20076;-76
2022/03/26 01:05:36;;;;;;;17.25;10.77;;;;;;;;;;5050806;28;20029;-76
2022/03/26 01:08:02;;;;;;;18.88;12.07;;;;;;;;;;5037646;28;20112;-76
2022/03/26 01:10:28;;;;;;;18.75;13.00;;;;;;;;;;5031199;28;20088;-76
2022/03/26 01:12:55;;;;;;;21.13;12.45;;;;;;;;;;5031000;28;20068;-76
2022/03/26 01:15:22;;;;;;;23.60;13.35;;;;;;;;;;5048541;28;20108;-76
2022/03/26 01:17:49;;;;;;;17.38;12.38;;;;;;;;;;5050336;28;20033;-76
2022/03/26 01:20:17;;;;;;;19.27;11.35;;;;;;;;;;5047763;28;20381;-76
2022/03/26 01:22:44;;;;;;;20.08;10.85;;;;;;;;;;5051077;28;20372;-76
2022/03/26 01:25:11;;;;;;;20.55;11.85;;;;;;;;;;5050449;28;20029;-76
2022/03/26 01:27:37;;;;;;;18.10;9.70;;;;;;;;;;5050147;28;20032;-76
2022/03/26 01:30:04;;;;;;;18.73;10.27;;;;;;;;;;5050742;28;20373;-76
2022/03/26 01:32:31;;;;;;;21.70;13.02;;;;;;;;;;5050088;28;20033;-76
2022/03/26 01:34:57;;;;;;;23.35;12.07;;;;;;;;;;5050826;28;20029;-76
2022/03/26 01:37:24;;;;;;;21.38;11.75;;;;;;;;;;5050909;28;20094;-75
2022/03/26 01:39:50;;;;;;;20.35;11.70;;;;;;;;;;5051031;28;20059;-76
2022/03/26 01:42:16;;;;;;;18.33;10.57;;;;;;;;;;5050415;28;20390;-76
2022/03/26 01:44:42;;;;;;;19.02;10.45;;;;;;;;;;5051142;28;20155;-76
2022/03/26 01:47:08;;;;;;;16.48;10.10;;;;;;;;;;5050331;28;20388;-76
2022/03/26 01:49:34;;;;;;;17.63;9.35;;;;;;;;;;5050741;28;20057;-76
2022/03/26 01:52:01;;;;;;;19.38;10.23;;;;;;;;;;5050156;28;20031;-76
2022/03/26 01:54:28;;;;;;;17.98;9.75;;;;;;;;;;5050453;28;20041;-76
2022/03/26 01:56:54;;;;;;;19.08;10.02;;;;;;;;;;5050171;28;20104;-76
2022/03/26 01:59:21;;;;;;;20.00;9.15;;;;;;;;;;5050466;28;20041;-76
2022/03/26 02:01:47;;;;;;;16.20;9.27;;;;;;;;;;5049596;28;20028;-76
2022/03/26 02:04:13;;;;;;;13.70;8.40;;;;;;;;;;5050579;28;20057;-75
2022/03/26 02:06:39;;;;;;;16.58;8.98;;;;;;;;;;5050246;28;20756;-76
2022/03/26 02:09:07;;;;;;;15.75;9.20;;;;;;;;;;5031539;28;20025;-76
2022/03/26 02:11:33;;;;;;;16.48;9.52;;;;;;;;;;5047939;28;20040;-76
2022/03/26 02:14:01;;;;;;;14.98;9.20;;;;;;;;;;5046968;28;20103;-76
2022/03/26 02:16:27;;;;;;;17.75;9.02;;;;;;;;;;5049362;28;20072;-75
2022/03/26 02:18:53;;;;;;;16.92;8.68;;;;;;;;;;5049183;28;20037;-76
2022/03/26 02:21:20;;;;;;;12.07;6.88;;;;;;;;;;5048764;28;20074;-76
2022/03/26 02:23:47;;;;;;;15.20;7.07;;;;;;;;;;5049274;28;20029;-76
2022/03/26 02:26:14;;;;;;;14.35;8.07;;;;;;;;;;5049543;28;20060;-76
2022/03/26 02:28:41;;;;;;;14.35;8.95;;;;;;;;;;5048889;28;20041;-75
2022/03/26 02:31:07;;;;;;;17.13;8.57;;;;;;;;;;5049515;28;20049;-76
2022/03/26 02:33:33;;;;;;;13.80;7.80;;;;;;;;;;5034057;28;20033;-75
2022/03/26 02:35:59;;;;;;;16.90;7.30;;;;;;;;;;5037365;28;20035;-75
2022/03/26 02:38:26;;;;;;;12.02;7.05;;;;;;;;;;5037445;28;20486;-76
2022/03/26 02:40:52;;;;;;;22.95;6.97;;;;;;;;;;5051832;28;20029;-75
2022/03/26 02:43:18;;;;;;;17.77;8.40;;;;;;;;;;5036393;28;20062;-75
2022/03/26 02:45:44;;;;;;;15.88;8.68;;;;;;;;;;5040206;28;20029;-76
2022/03/26 02:48:12;;;;;;;13.05;8.05;;;;;;;;;;5050406;28;20033;-75
2022/03/26 02:50:39;;;;;;;12.20;7.05;;;;;;;;;;5036999;28;20032;-75
2022/03/26 02:53:06;;;;;;;10.93;6.70;;;;;;;;;;5054214;28;20037;-76
2022/03/26 02:55:32;;;;;;;12.90;6.75;;;;;;;;;;5053158;28;20820;-75
2022/03/26 02:57:58;;;;;;;12.52;6.88;;;;;;;;;;5055307;28;20037;-75
2022/03/26 03:00:24;;;;;;;12.35;6.43;;;;;;;;;;5044494;28;20029;-75
2022/03/26 03:02:50;;;;;;;11.35;6.97;;;;;;;;;;5052115;28;20057;-75
2022/03/26 03:05:16;;;;;;;12.00;6.00;;;;;;;;;;5046701;28;20580;-76
2022/03/26 03:07:42;;;;;;;10.75;5.93;;;;;;;;;;5052797;28;20035;-75
2022/03/26 03:10:08;;;;;;;10.75;6.65;;;;;;;;;;5048035;28;20040;-76
2022/03/26 03:12:34;;;;;;;16.65;6.40;;;;;;;;;;5036965;28;20119;-75
2022/03/26 03:15:00;;;;;;;11.52;6.70;;;;;;;;;;5052745;28;20563;-75
2022/03/26 03:17:26;;;;;;;10.05;5.93;;;;;;;;;;5046652;28;20033;-76
2022/03/26 03:19:52;;;;;;;14.45;7.60;;;;;;;;;;5042325;28;20052;-76
2022/03/26 03:22:18;;;;;;;14.30;7.00;;;;;;;;;;5042154;28;20017;-75
2022/03/26 03:24:44;;;;;;;11.15;6.72;;;;;;;;;;5055442;28;20041;-75
2022/03/26 03:27:10;;;;;;;11.55;7.32;;;;;;;;;;5054963;28;20044;-75
2022/03/26 03:29:36;;;;;;;12.10;7.55;;;;;;;;;;5051798;28;20166;-75
2022/03/26 03:32:02;;;;;;;13.48;7.20;;;;;;;;;;5035538;28;20034;-75
2022/03/26 03:34:29;;;;;;;16.08;7.53;;;;;;;;;;5035525;28;20072;-76
2022/03/26 03:36:55;;;;;;;14.60;8.35;;;;;;;;;;5049554;28;20025;-76
2022/03/26 03:39:23;;;;;;;13.23;7.93;;;;;;;;;;5055105;28;20044;-75
2022/03/26 03:41:49;;;;;;;14.05;9.02;;;;;;;;;;5054767;28;20025;-76
2022/03/26 03:44:16;;;;;;;16.38;8.18;;;;;;;;;;5035785;28;20038;-76
2022/03/26 03:46:42;;;;;;;14.25;7.45;;;;;;;;;;5037548;28;20043;-76
2022/03/26 03:49:08;;;;;;;14.10;7.72;;;;;;;;;;5051720;28;20531;-76
2022/03/26 03:51:34;;;;;;;13.20;7.22;;;;;;;;;;5051438;28;20040;-76
2022/03/26 03:54:00;;;;;;;14.30;8.73;;;;;;;;;;5037973;28;20037;-76
2022/03/26 03:56:26;;;;;;;15.90;9.63;;;;;;;;;;5031963;28;20048;-76
2022/03/26 03:58:52;;;;;;;15.02;8.75;;;;;;;;;;5054617;28;20040;-76
2022/03/26 04:01:18;;;;;;;17.65;9.43;;;;;;;;;;5048679;28;20029;-76
2022/03/26 04:03:44;;;;;;;18.88;9.20;;;;;;;;;;5051259;28;20060;-76
2022/03/26 04:06:10;;;;;;;16.42;9.27;;;;;;;;;;5052243;28;20021;-76
2022/03/26 04:08:36;;;;;;;17.80;9.60;;;;;;;;;;5052344;28;20044;-76
2022/03/26 04:11:02;;;;;;;15.82;10.15;;;;;;;;;;5032370;28;20479;-76
2022/03/26 04:13:28;;;;;;;18.77;8.23;;;;;;;;;;5038498;28;20056;-76
2022/03/26 04:15:54;;;;;;;14.75;8.60;;;;;;;;;;5036894;28;20560;-76
2022/03/26 04:18:20;;;;;;;17.15;10.40;;;;;;;;;;5035976;28;20477;-76
2022/03/26 04:20:46;;;;;;;16.85;9.55;;;;;;;;;;5052158;28;20522;-76
2022/03/26 04:23:12;;;;;;;18.55;10.95;;;;;;;;;;5044174;28;20052;-75
2022/03/26 04:25:38;;;;;;;19.60;9.93;;;;;;;;;;5051811;28;20793;-75
2022/03/26 04:28:05;;;;;;;21.10;10.70;;;;;;;;;;5051390;28;20033;-75
2022/03/26 04:30:31;;;;;;;17.30;8.93;;;;;;;;;;5036665;28;20075;-75
2022/03/26 04:32:57;;;;;;;18.77;10.38;;;;;;;;;;5049412;28;20036;-76
2022/03/26 04:35:24;;;;;;;18.48;9.85;;;;;;;;;;5051185;28;20037;-75
2022/03/26 04:37:52;;;;;;;17.02;9.38;;;;;;;;;;5051940;28;20428;-75
2022/03/26 04:40:18;;;;;;;18.38;9.40;;;;;;;;;;5037220;28;20108;-75
2022/03/26 04:42:44;;;;;;;18.42;11.07;;;;;;;;;;5031833;28;20036;-75
2022/03/26 04:45:10;;;;;;;19.38;9.95;;;;;;;;;;5048078;28;20029;-75
2022/03/26 04:47:36;;;;;;;17.58;9.70;;;;;;;;;;5055853;28;20028;-75
2022/03/26 04:50:02;;;;;;;19.42;10.43;;;;;;;;;;5049819;28;20112;-76
2022/03/26 04:52:28;;;;;;;19.67;11.15;;;;;;;;;;5031128;28;20512;-76
2022/03/26 04:54:54;;;;;;;16.75;9.43;;;;;;;;;;5051130;28;20152;-75
2022/03/26 04:57:20;;;;;;;16.98;10.93;;;;;;;;;;5031045;28;20044;-75
2022/03/26 04:59:46;;;;;;;16.60;10.43;;;;;;;;;;5047845;28;20471;-75
2022/03/26 05:02:13;;;;;;;18.08;10.27;;;;;;;;;;5051350;28;20032;-76
2022/03/26 05:04:39;;;;;;;18.55;10.48;;;;;;;;;;5047934;28;20045;-75
2022/03/26 05:07:45;;;;;;;16.45;9.70;;;;;;;;;;5051266;28;20074;-75
2022/03/26 05:09:51;;;;;;;20.83;11.00;;;;;;;;;;5046251;28;20135;-76
2022/03/26 05:12:18;;;;;;;19.80;11.00;;;;;;;;;;5051044;28;20044;-75
2022/03/26 05:14:44;;;;;;;16.15;8.98;;;;;;;;;;5043649;28;20052;-75
2022/03/26 05:17:11;;;;;;;17.80;10.57;;;;;;;;;;5051239;28;20108;-76
2022/03/26 05:19:37;;;;;;;23.80;10.43;;;;;;;;;;5050106;28;20060;-75
2022/03/26 05:22:04;;;;;;;20.40;11.73;;;;;;;;;;5050963;28;20598;-76
2022/03/26 05:24:30;;;;;;;20.52;10.48;;;;;;;;;;5050431;28;22631;-76
2022/03/26 05:26:56;;;;;;;22.00;11.57;;;;;;;;;;5048279;28;20084;-76
2022/03/26 05:29:22;;;;;;;22.13;12.02;;;;;;;;;;5030492;28;20032;-75
2022/03/26 05:31:48;;;;;;;19.25;12.57;;;;;;;;;;5030799;28;20048;-76
2022/03/26 05:34:14;;;;;;;21.48;11.45;;;;;;;;;;5030402;28;20487;-75
2022/03/26 05:36:40;;;;;;;25.13;12.73;;;;;;;;;;5047361;28;20047;-75
2022/03/26 05:39:06;;;;;;;23.38;13.52;;;;;;;;;;5050390;28;20029;-75
2022/03/26 05:41:32;;;;;;;20.00;11.95;;;;;;;;;;5049851;28;20029;-75
2022/03/26 05:44:00;;;;;;;23.73;13.23;;;;;;;;;;5041496;28;20025;-75
2022/03/26 05:46:26;;;;;;;24.58;13.32;;;;;;;;;;5041558;28;20032;-75
2022/03/26 05:48:52;;;;;;;21.73;12.02;;;;;;;;;;5050489;28;20053;-75
2022/03/26 05:51:18;;;;;;;24.08;12.15;;;;;;;;;;5045013;28;20069;-75
2022/03/26 05:53:44;;;;;;;26.27;12.27;;;;;;;;;;5034866;28;20111;-75
2022/03/26 05:56:10;;;;;;;17.08;10.50;;;;;;;;;;5043662;28;20040;-75
2022/03/26 05:58:36;;;;;;;22.73;12.57;;;;;;;;;;5030381;28;20029;-75
2022/03/26 06:01:03;;;;;;;21.17;10.90;;;;;;;;;;5038401;28;20852;-75
2022/03/26 06:03:29;;;;;;;24.92;13.85;;;;;;;;;;5033693;28;20044;-75
2022/03/26 06:05:55;;;;;;;20.20;10.43;;;;;;;;;;5047149;28;20033;-75
2022/03/26 06:08:21;;;;;;;21.70;11.43;;;;;;;;;;5049747;28;20031;-75
2022/03/26 06:10:47;;;;;;;28.42;11.13;;;;;;;;;;5048685;28;20036;-75
2022/03/26 06:13:13;;;;;;;21.63;11.63;;;;;;;;;;5031991;28;20048;-75
2022/03/26 06:15:39;;;;;;;21.98;11.15;;;;;;;;;;5041948;28;20037;-75
2022/03/26 06:18:05;;;;;;;18.95;10.75;;;;;;;;;;5034314;28;20407;-76
2022/03/26 06:20:31;;;;;;;19.92;10.95;;;;;;;;;;5038613;28;20044;-75
2022/03/26 06:22:57;;;;;;;19.27;10.27;;;;;;;;;;5055082;28;20035;-75
2022/03/26 06:25:23;;;;;;;22.70;11.32;;;;;;;;;;5047465;28;20043;-76
2022/03/26 06:27:50;;;;;;;24.17;10.40;;;;;;;;;;5049204;28;20071;-75
2022/03/26 06:30:16;;;;;;;17.92;10.57;;;;;;;;;;5049581;28;20044;-75
2022/03/26 06:32:42;;;;;;;22.65;10.93;;;;;;;;;;5044678;28;20041;-75
2022/03/26 06:35:09;;;;;;;16.83;10.63;;;;;;;;;;5049585;28;20033;-75
2022/03/26 06:37:35;;;;;;;21.33;10.45;;;;;;;;;;5048800;28;20064;-75
2022/03/26 06:40:01;;;;;;;21.30;13.32;;;;;;;;;;5049519;28;20037;-75
2022/03/26 06:42:27;;;;;;;22.45;12.43;;;;;;;;;;5046272;28;20047;-75
2022/03/26 06:44:59;;;;;;;23.55;12.75;;;;;;;;;;5049795;28;20146;-75
2022/03/26 06:47:26;;;;;;;21.70;12.57;;;;;;;;;;5033117;28;20037;-75
2022/03/26 06:49:52;;;;;;;20.98;11.98;;;;;;;;;;5046575;28;20029;-75
2022/03/26 06:52:18;;;;;;;20.52;12.35;;;;;;;;;;5037326;28;20030;-75
2022/03/26 06:54:45;;;;;;;20.75;11.88;;;;;;;;;;5037603;28;20075;-75
2022/03/26 06:57:11;;;;;;;22.42;12.30;;;;;;;;;;5032664;28;20049;-75
2022/03/26 06:59:38;;;;;;;21.15;11.27;;;;;;;;;;5049094;28;20831;-75
2022/03/26 07:02:04;;;;;;;21.77;12.40;;;;;;;;;;5049115;28;20817;-75
2022/03/26 07:04:30;;;;;;;18.02;10.82;;;;;;;;;;5046067;28;20060;-75
2022/03/26 07:06:57;;;;;;;22.95;12.25;;;;;;;;;;5035056;28;20114;-76
2022/03/26 07:09:23;;;;;;;20.50;10.90;;;;;;;;;;5039798;28;20036;-76
2022/03/26 07:11:50;;;;;;;21.55;11.38;;;;;;;;;;5035516;28;20032;-75
2022/03/26 07:14:16;;;;;;;19.27;10.82;;;;;;;;;;5035215;28;20036;-75
2022/03/26 07:16:43;;;;;;;17.20;10.20;;;;;;;;;;5042823;28;20034;-74
2022/03/26 07:19:10;;;;;;;23.13;11.50;;;;;;;;;;5037392;28;20033;-76
2022/03/26 07:21:37;;;;;;;22.35;10.65;;;;;;;;;;5039969;28;20044;-76
2022/03/26 07:24:04;;;;;;;20.52;10.70;;;;;;;;;;5042412;28;20045;-76
2022/03/26 07:26:30;;;;;;;16.35;10.73;;;;;;;;;;5040775;28;20373;-76
2022/03/26 07:28:56;;;;;;;19.38;11.15;;;;;;;;;;5038158;28;20498;-76
2022/03/26 07:31:23;;;;;;;19.13;11.52;;;;;;;;;;5043344;28;20490;-77
2022/03/26 07:33:49;;;;;;;18.42;10.43;;;;;;;;;;5043196;28;20044;-76
2022/03/26 07:36:15;;;;;;;18.50;10.30;;;;;;;;;;5038150;28;20029;-74
2022/03/26 07:38:42;;;;;;;19.77;11.23;;;;;;;;;;5041678;28;20037;-74
2022/03/26 07:41:08;;;;;;;21.48;9.85;;;;;;;;;;5040018;28;20025;-75
2022/03/26 07:43:34;;;;;;;20.10;10.43;;;;;;;;;;5047730;28;20030;-75
2022/03/26 07:46:00;;;;;;;16.20;9.85;;;;;;;;;;5040782;28;20017;-76
2022/03/26 07:48:27;;;;;;;16.05;10.07;;;;;;;;;;5046431;28;20100;-76
2022/03/26 07:50:53;;;;;;;21.77;10.95;;;;;;;;;;5044766;28;20037;-76
2022/03/26 07:53:18;;;;;;;17.50;9.57;;;;;;;;;;5039211;28;20032;-76
2022/03/26 07:55:44;;;;;;;13.52;8.90;;;;;;;;;;5047970;28;20033;-76
2022/03/26 07:58:11;;;;;;;18.75;9.27;;;;;;;;;;5049686;28;20195;-77
2022/03/26 08:00:37;;;;;;;17.45;9.68;;;;;;;;;;5034563;28;20034;-76
2022/03/26 08:03:03;;;;;;;17.38;9.82;;;;;;;;;;5049971;28;20461;-76
2022/03/26 08:05:29;;;;;;;19.63;10.75;;;;;;;;;;5046433;28;20480;-75
2022/03/26 08:07:55;;;;;;;21.40;12.05;;;;;;;;;;5045853;28;20029;-74
2022/03/26 08:10:21;;;;;;;16.00;10.15;;;;;;;;;;5049355;28;20033;-75
2022/03/26 08:12:47;;;;;;;18.25;10.52;;;;;;;;;;5044841;28;20029;-74
2022/03/26 08:15:13;;;;;;;18.98;10.70;;;;;;;;;;5048967;28;20066;-74
2022/03/26 08:17:39;;;;;;;17.67;9.75;;;;;;;;;;5049977;28;20609;-75
2022/03/26 08:20:07;;;;;;;15.57;9.35;;;;;;;;;;5047571;28;20068;-75
2022/03/26 08:22:34;;;;;;;13.70;9.27;;;;;;;;;;5050816;28;20025;-75
2022/03/26 08:25:01;;;;;;;18.38;9.25;;;;;;;;;;5048884;28;20029;-75
2022/03/26 08:27:27;;;;;;;14.13;8.10;;;;;;;;;;5046740;28;20065;-75
2022/03/26 08:29:53;;;;;;;15.10;9.15;;;;;;;;;;5050744;28;20867;-75
2022/03/26 08:32:19;;;;;;;13.25;8.93;;;;;;;;;;5042767;28;20072;-75
2022/03/26 08:34:45;;;;;;;17.10;9.18;;;;;;;;;;5050038;28;20036;-75
2022/03/26 08:37:11;;;;;;;19.35;9.48;;;;;;;;;;5049654;28;20494;-75
2022/03/26 08:39:37;;;;;;;16.65;9.63;;;;;;;;;;5050850;28;20048;-75
2022/03/26 08:42:04;;;;;;;15.88;8.48;;;;;;;;;;5040551;28;20475;-75
2022/03/26 08:44:30;;;;;;;17.58;8.98;;;;;;;;;;5034502;28;20144;-75
2022/03/26 08:46:57;;;;;;;12.52;7.68;;;;;;;;;;5049396;28;20021;-75
2022/03/26 08:49:23;;;;;;;15.00;8.23;;;;;;;;;;5051894;28;20750;-75
2022/03/26 08:51:49;;;;;;;14.25;8.25;;;;;;;;;;5048728;28;20110;-75
2022/03/26 08:54:15;;;;;;;15.25;7.35;;;;;;;;;;5051037;28;20086;-75
2022/03/26 08:56:41;;;;;;;17.20;7.93;;;;;;;;;;5046951;28;20040;-75
2022/03/26 08:59:07;;;;;;;14.77;7.15;;;;;;;;;;5041924;28;20044;-75
2022/03/26 09:01:33;;;;;;;16.70;7.90;;;;;;;;;;5041712;28;20364;-75
2022/03/26 09:03:59;;;;;;;10.30;6.80;;;;;;;;;;5050714;28;20053;-75
2022/03/26 09:06:25;;;;;;;11.40;6.88;;;;;;;;;;5039995;28;20044;-76
2022/03/26 09:08:51;;;;;;;12.82;6.18;;;;;;;;;;5051232;28;20037;-75
2022/03/26 09:11:17;;;;;;;13.02;6.53;;;;;;;;;;5050122;28;20025;-75
2022/03/26 09:13:43;;;;;;;12.60;7.63;;;;;;;;;;5036767;28;20034;-75
2022/03/26 09:16:10;;;;;;;22.08;7.00;;;;;;;;;;5035253;28;20027;-75
2022/03/26 09:18:36;;;;;;;11.80;6.85;;;;;;;;;;5033386;28;20108;-75
2022/03/26 09:21:02;;;;;;;17.60;6.70;;;;;;;;;;5041405;28;20112;-75
2022/03/26 09:23:28;;;;;;;15.35;6.95;;;;;;;;;;5044377;28;20122;-75
2022/03/26 09:25:54;;;;;;;13.43;8.07;;;;;;;;;;5049582;28;20100;-75
2022/03/26 09:28:20;;;;;;;18.48;8.13;;;;;;;;;;5049423;28;20025;-75
2022/03/26 09:30:46;;;;;;;16.33;7.97;;;;;;;;;;5049244;28;20037;-75
2022/03/26 09:33:12;;;;;;;13.18;7.95;;;;;;;;;;5049075;28;20047;-75
2022/03/26 09:35:38;;;;;;;16.33;8.05;;;;;;;;;;5042254;28;20723;-75
2022/03/26 09:38:04;;;;;;;13.35;7.18;;;;;;;;;;5050417;28;20044;-75
2022/03/26 09:40:32;;;;;;;14.88;8.52;;;;;;;;;;5054546;28;20418;-75
2022/03/26 09:42:59;;;;;;;18.60;8.00;;;;;;;;;;5058368;28;20029;-75
2022/03/26 09:45:25;;;;;;;15.48;7.45;;;;;;;;;;5046315;28;20039;-75
2022/03/26 09:47:53;;;;;;;13.50;7.97;;;;;;;;;;5049249;28;20107;-76
2022/03/26 09:50:21;;;;;;;14.90;7.53;;;;;;;;;;5049397;28;20025;-75
2022/03/26 09:52:47;;;;;;;15.45;8.45;;;;;;;;;;5049517;28;20033;-75
2022/03/26 09:55:13;;;;;;;15.43;8.18;;;;;;;;;;5041402;28;20051;-75
2022/03/26 09:57:39;;;;;;;14.63;7.65;;;;;;;;;;5050544;28;20037;-76
2022/03/26 10:00:06;;;;;;;13.02;7.95;;;;;;;;;;5048693;28;20468;-75
2022/03/26 10:02:32;;;;;;;16.65;8.10;;;;;;;;;;5049063;28;20029;-76
2022/03/26 10:04:58;;;;;;;16.02;8.25;;;;;;;;;;5048971;28;20035;-76
2022/03/26 10:07:28;;;;;;;19.67;9.25;;;;;;;;;;5048926;28;20087;-76
2022/03/26 10:09:55;;;;;;;19.08;10.23;;;;;;;;;;5043639;28;20029;-75
2022/03/26 10:12:22;;;;;;;17.13;9.00;;;;;;;;;;5043716;28;20030;-76
2022/03/26 10:14:52;;;;;;;19.48;9.90;;;;;;;;;;5040977;28;20379;-72
2022/03/26 10:17:22;;;;;;;20.25;9.98;;;;;;;;;;5047241;28;20546;-73
2022/03/26 10:19:49;;;;;;;17.25;10.20;;;;;;;;;;5037320;28;20495;-73
2022/03/26 10:22:34;;;;;;;21.85;11.20;;;;;;;;;;5047471;28;20029;-76
2022/03/26 10:25:05;;;;;;;15.95;10.70;;;;;;;;;;5049038;28;20079;-75
2022/03/26 10:27:42;;;;;;;18.63;11.10;;;;;;;;;;5048850;28;20056;-76
2022/03/26 10:30:09;;;;;;;18.45;11.55;;;;;;;;;;5045899;28;20076;-76
2022/03/26 10:32:39;;;;;;;17.25;11.95;;;;;;;;;;5035445;28;20119;-75
2022/03/26 10:35:25;;;;;;;22.20;11.55;;;;;;;;;;5048536;28;20037;-75
2022/03/26 10:37:56;;;;;;;22.90;11.85;;;;;;;;;;5043200;28;20487;-75
2022/03/26 10:40:33;;;;;;;21.55;11.00;;;;;;;;;;5047711;28;20044;-76
2022/03/26 10:43:01;;;;;;;23.30;12.13;;;;;;;;;;5044851;28;20029;-76
2022/03/26 10:45:28;;;;;;;19.42;12.02;;;;;;;;;;5043561;28;20032;-75
2022/03/26 10:47:55;;;;;;;21.88;12.80;;;;;;;;;;5051915;28;20037;-75
2022/03/26 10:50:22;;;;;;;20.67;13.65;;;;;;;;;;5048786;28;20040;-75
2022/03/26 10:52:48;;;;;;;22.60;13.80;;;;;;;;;;5048375;28;20163;-75
2022/03/26 10:55:14;;;;;;;20.48;13.57;;;;;;;;;;5042906;28;20044;-75
2022/03/26 10:57:41;;;;;;;20.15;12.35;;;;;;;;;;5041930;28;20063;-75
2022/03/26 11:00:09;;;;;;;21.30;13.63;;;;;;;;;;5052114;28;20143;-76
2022/03/26 11:02:35;;;;;;;20.70;12.48;;;;;;;;;;5050791;28;20029;-75
2022/03/26 11:05:01;;;;;;;19.73;12.10;;;;;;;;;;5050694;28;20049;-75
2022/03/26 11:07:28;;;;;;;17.83;11.23;;;;;;;;;;5051755;28;20072;-75
2022/03/26 11:09:56;;;;;;;18.73;11.20;;;;;;;;;;5052922;28;20076;-76
2022/03/26 11:12:22;;;;;;;17.88;11.43;;;;;;;;;;5050557;28;20072;-75
2022/03/26 11:14:49;;;;;;;20.10;11.77;;;;;;;;;;5051684;28;20029;-75
2022/03/26 11:17:34;;;;;;;21.50;12.23;;;;;;;;;;5053286;28;20037;-76
2022/03/26 11:20:06;;;;;;;18.88;11.90;;;;;;;;;;5049594;28;20822;-76
2022/03/26 11:22:32;;;;;;;20.48;12.20;;;;;;;;;;5052869;28;20033;-76
2022/03/26 11:25:17;;;;;;;17.08;11.88;;;;;;;;;;5052309;28;20033;-76
2022/03/26 11:28:02;;;;;;;23.92;14.05;;;;;;;;;;5033031;28;20037;-76
2022/03/26 11:30:47;;;;;;;21.60;13.18;;;;;;;;;;5045014;28;20055;-75
2022/03/26 11:33:14;;;;;;;19.33;12.00;;;;;;;;;;5049935;28;20048;-76
2022/03/26 11:35:52;;;;;;;17.58;11.32;;;;;;;;;;5051174;28;20133;-75
2022/03/26 11:38:18;;;;;;;25.85;14.18;;;;;;;;;;5044591;28;20075;-76
2022/03/26 11:40:57;;;;;;;22.90;15.55;;;;;;;;;;5050734;28;20102;-75
2022/03/26 11:43:42;;;;;;;23.05;16.00;;;;;;;;;;5051933;28;20021;-76
2022/03/26 11:51:40;;;;;;;21.73;13.10;;;;;;;;;;5041757;28;20086;-75
2022/03/26 11:54:07;;;;;;;27.60;16.90;;;;;;;;;;5050674;28;20498;-75
2022/03/26 11:56:34;;;;;;;24.48;17.42;;;;;;;;;;5051950;28;20098;-75
2022/03/26 11:59:05;;;;;;;30.55;17.23;;;;;;;;;;5052178;28;20507;-75
2022/03/26 12:01:41;;;;;;;27.30;18.92;;;;;;;;;;5043549;28;20472;-75
2022/03/26 12:04:10;;;;;;;30.02;18.40;;;;;;;;;;5046265;28;20084;-75
2022/03/26 12:06:43;;;;;;;30.45;19.73;;;;;;;;;;5049786;28;20044;-75
2022/03/26 12:09:11;;;;;;;29.33;19.08;;;;;;;;;;5052120;28;20076;-75
2022/03/26 12:11:37;;;;;;;28.85;20.08;;;;;;;;;;5032484;28;20036;-75
2022/03/26 12:14:03;;;;;;;31.42;20.42;;;;;;;;;;5032088;28;20040;-75
2022/03/26 12:16:48;;;;;;;25.65;18.73;;;;;;;;;;5048952;28;20120;-74
2022/03/26 12:19:34;;;;;;;30.08;21.13;;;;;;;;;;5043517;28;20133;-75
2022/03/26 12:22:17;;;;;;;29.77;20.67;;;;;;;;;;5031603;28;20106;-75
2022/03/26 12:24:43;;;;;;;28.40;20.63;;;;;;;;;;5047452;28;20027;-75
2022/03/26 12:27:09;;;;;;;31.23;20.73;;;;;;;;;;5050923;28;20039;-76
2022/03/26 12:29:38;;;;;;;28.98;19.00;;;;;;;;;;5050021;28;20028;-75
2022/03/26 12:32:04;;;;;;;31.67;19.48;;;;;;;;;;5031617;28;20044;-74
2022/03/26 12:34:31;;;;;;;29.17;19.63;;;;;;;;;;5044285;28;20473;-75
2022/03/26 12:37:01;;;;;;;28.55;18.27;;;;;;;;;;5040813;28;20055;-74
2022/03/26 12:39:27;;;;;;;28.98;19.77;;;;;;;;;;5047081;28;20890;-74
2022/03/26 12:41:54;;;;;;;26.05;18.35;;;;;;;;;;5049344;28;20111;-75
2022/03/26 12:44:22;;;;;;;33.92;17.35;;;;;;;;;;5047033;28;20138;-74
2022/03/26 12:46:49;;;;;;;28.75;17.50;;;;;;;;;;5050046;28;20464;-75
2022/03/26 12:49:19;;;;;;;31.50;18.30;;;;;;;;;;5050060;28;20168;-74
2022/03/26 12:51:48;;;;;;;27.63;17.63;;;;;;;;;;5049233;28;20472;-74
2022/03/26 12:54:14;;;;;;;26.30;17.85;;;;;;;;;;5049503;28;20041;-74
2022/03/26 12:56:40;;;;;;;25.17;16.30;;;;;;;;;;5048629;28;20037;-74
2022/03/26 12:59:06;;;;;;;29.67;18.17;;;;;;;;;;5036254;28;20040;-74
2022/03/26 13:01:32;;;;;;;24.75;16.35;;;;;;;;;;5040302;28;20037;-74
2022/03/26 13:03:58;;;;;;;26.70;17.83;;;;;;;;;;5043670;28;20057;-74
2022/03/26 13:06:25;;;;;;;26.58;16.20;;;;;;;;;;5033524;28;20040;-74
2022/03/26 13:08:55;;;;;;;23.55;16.20;;;;;;;;;;5030601;28;20029;-75
2022/03/26 13:11:22;;;;;;;24.65;15.93;;;;;;;;;;5048724;28;20033;-74
2022/03/26 13:13:48;;;;;;;84.25;17.08;;;;;;;;;;5047282;28;20034;-74
2022/03/26 13:16:16;;;;;;;24.63;15.50;;;;;;;;;;5030225;28;20029;-74
2022/03/26 13:18:42;;;;;;;22.10;14.65;;;;;;;;;;5047773;28;20423;-74
2022/03/26 13:21:08;;;;;;;23.20;14.70;;;;;;;;;;5036728;28;20116;-74
2022/03/26 13:23:34;;;;;;;21.98;14.00;;;;;;;;;;5029813;28;20034;-74
2022/03/26 13:26:03;;;;;;;21.60;15.10;;;;;;;;;;5045640;28;20071;-74
2022/03/26 13:28:33;;;;;;;26.77;15.07;;;;;;;;;;5048211;28;20057;-74
2022/03/26 13:30:59;;;;;;;23.23;15.00;;;;;;;;;;5033144;28;20044;-74
2022/03/26 13:33:28;;;;;;;21.58;13.65;;;;;;;;;;5042901;28;20044;-74
2022/03/26 13:36:01;;;;;;;24.23;14.43;;;;;;;;;;5042724;28;20086;-74
2022/03/26 13:38:28;;;;;;;22.52;14.18;;;;;;;;;;5047708;28;20458;-74
2022/03/26 13:40:55;;;;;;;24.45;15.85;;;;;;;;;;5049443;28;20051;-74
2022/03/26 13:43:21;;;;;;;23.60;15.43;;;;;;;;;;5043518;28;20025;-74
2022/03/26 13:45:47;;;;;;;22.60;14.48;;;;;;;;;;5037935;28;20068;-74
2022/03/26 13:48:13;;;;;;;27.27;16.08;;;;;;;;;;5045786;28;20082;-74
2022/03/26 13:50:40;;;;;;;21.88;14.63;;;;;;;;;;5049474;28;20040;-74
2022/03/26 13:53:16;;;;;;;24.38;15.13;;;;;;;;;;5047272;28;20455;-74
2022/03/26 13:55:46;;;;;;;24.63;14.95;;;;;;;;;;5051216;28;20037;-74
2022/03/26 13:58:18;;;;;;;22.63;14.93;;;;;;;;;;5051691;28;20028;-73
2022/03/26 14:00:44;;;;;;;26.63;17.83;;;;;;;;;;5045481;28;20029;-72
2022/03/26 14:03:10;;;;;;;22.45;15.50;;;;;;;;;;5063425;28;20049;-76
2022/03/26 14:05:36;;;;;;;22.90;16.30;;;;;;;;;;5048162;28;20108;-76
2022/03/26 14:08:03;;;;;;;24.80;16.42;;;;;;;;;;5049095;28;20147;-76
2022/03/26 14:10:42;;;;;;;21.95;15.48;;;;;;;;;;5046795;28;20029;-76
2022/03/26 14:13:10;;;;;;;25.30;16.40;;;;;;;;;;5055088;28;20033;-76
2022/03/26 14:15:37;;;;;;;23.35;16.67;;;;;;;;;;5035130;28;20090;-75
2022/03/26 14:18:03;;;;;;;28.38;16.25;;;;;;;;;;5048466;28;20103;-76
2022/03/26 14:20:32;;;;;;;22.73;15.77;;;;;;;;;;5035208;28;20065;-76
2022/03/26 14:23:03;;;;;;;25.25;16.80;;;;;;;;;;5034749;28;20460;-76
2022/03/26 14:25:30;;;;;;;25.60;16.85;;;;;;;;;;5049249;28;20063;-76
2022/03/26 14:28:00;;;;;;;28.65;17.27;;;;;;;;;;5032965;28;20075;-76